createdAt,value
2022-10-13T00:02:41.874Z,99.90
2022-10-13T00:07:44.710Z,99.90
2022-10-13T00:12:47.600Z,99.90
2022-10-13T00:17:51.021Z,99.90
2022-10-13T00:22:54.142Z,99.90
2022-10-13T00:27:56.959Z,99.90
2022-10-13T00:32:59.748Z,99.90
2022-10-13T00:38:02.306Z,99.90
2022-10-13T00:43:14.487Z,99.90
2022-10-13T00:48:23.981Z,99.90
2022-10-13T00:53:33.169Z,99.90
2022-10-13T00:58:39.178Z,99.90
2022-10-13T01:03:41.939Z,99.90
2022-10-13T01:08:44.794Z,99.90
2022-10-13T01:13:54.775Z,99.90
2022-10-13T01:19:35.024Z,99.90
2022-10-13T01:24:43.388Z,99.90
2022-10-13T01:30:03.825Z,99.90
2022-10-13T01:35:14.219Z,99.90
2022-10-13T01:40:29.195Z,99.90
2022-10-13T01:45:38.506Z,99.90
2022-10-13T01:50:41.595Z,99.90
2022-10-13T01:55:52.984Z,99.90
2022-10-13T02:01:18.551Z,99.90
2022-10-13T02:06:31.250Z,99.90
2022-10-13T02:11:34.131Z,99.90
2022-10-13T02:16:41.126Z,99.90
2022-10-13T02:21:45.274Z,99.90
2022-10-13T02:26:48.306Z,99.90
2022-10-13T02:31:51.242Z,99.90
2022-10-13T02:36:54.064Z,99.90
2022-10-13T02:41:56.960Z,99.90
2022-10-13T02:47:00.172Z,99.90
2022-10-13T02:52:03.167Z,99.90
2022-10-13T02:57:05.919Z,99.90
2022-10-13T03:02:08.685Z,99.90
2022-10-13T03:07:11.791Z,99.90
2022-10-13T03:12:14.630Z,99.90
2022-10-13T03:17:17.581Z,99.90
2022-10-13T03:22:20.835Z,99.90
2022-10-13T03:27:24.104Z,99.90
2022-10-13T03:32:26.892Z,99.90
2022-10-13T03:37:30.743Z,99.90
2022-10-13T03:42:35.962Z,99.90
2022-10-13T03:47:38.726Z,99.90
2022-10-13T03:52:41.501Z,99.90
2022-10-13T03:57:44.253Z,99.90
2022-10-13T04:02:49.539Z,99.90
2022-10-13T04:07:52.319Z,99.90
2022-10-13T04:12:55.087Z,99.90
2022-10-13T04:17:57.827Z,99.90
2022-10-13T04:23:01.109Z,99.90
2022-10-13T04:28:05.759Z,99.90
2022-10-13T04:33:08.727Z,99.90
2022-10-13T04:38:11.479Z,99.90
2022-10-13T04:43:15.924Z,99.90
2022-10-13T04:48:18.730Z,99.90
2022-10-13T04:53:22.645Z,99.90
2022-10-13T04:58:25.633Z,99.90
2022-10-13T05:03:28.548Z,99.90
2022-10-13T05:08:33.196Z,99.90
2022-10-13T05:13:36.487Z,99.90
2022-10-13T05:18:39.683Z,99.90
2022-10-13T05:23:42.913Z,99.90
2022-10-13T05:28:46.685Z,99.90
2022-10-13T05:33:50.381Z,99.90
2022-10-13T05:38:55.386Z,99.90
2022-10-13T05:44:01.500Z,99.90
2022-10-13T05:49:04.687Z,99.90
2022-10-13T05:54:12.452Z,99.90
2022-10-13T05:59:17.406Z,99.90
2022-10-13T06:04:31.891Z,99.90
2022-10-13T06:09:37.929Z,99.90
2022-10-13T06:14:40.994Z,99.90
2022-10-13T06:19:45.711Z,99.90
2022-10-13T06:24:49.002Z,99.90
2022-10-13T06:29:51.801Z,99.90
2022-10-13T06:34:54.727Z,99.90
2022-10-13T06:39:57.529Z,99.90
2022-10-13T06:45:00.439Z,99.90
2022-10-13T06:50:03.547Z,99.90
2022-10-13T06:55:06.540Z,99.90
2022-10-13T07:00:09.947Z,99.90
2022-10-13T07:05:12.740Z,99.90
2022-10-13T07:10:15.679Z,99.90
2022-10-13T07:15:18.496Z,99.90
2022-10-13T07:20:22.678Z,99.90
2022-10-13T07:25:25.883Z,99.90
2022-10-13T07:30:28.678Z,99.90
2022-10-13T07:35:31.456Z,99.90
2022-10-13T07:40:34.607Z,99.90
2022-10-13T07:45:37.385Z,99.90
2022-10-13T07:50:40.125Z,99.90
2022-10-13T07:55:42.712Z,99.90
2022-10-13T08:00:45.547Z,99.90
2022-10-13T08:05:48.340Z,99.90
2022-10-13T08:10:51.468Z,99.90
2022-10-13T08:15:54.087Z,99.90
2022-10-13T08:21:23.976Z,99.90
2022-10-13T08:26:27.056Z,99.90
2022-10-13T08:31:30.262Z,99.90
2022-10-13T08:36:33.168Z,99.90
2022-10-13T08:41:46.050Z,99.90
2022-10-13T08:47:09.334Z,99.90
2022-10-13T08:52:26.973Z,99.90
2022-10-13T08:57:30.624Z,99.90
2022-10-13T09:02:33.244Z,99.90
2022-10-13T09:07:37.173Z,99.90
2022-10-13T09:12:39.992Z,99.90
2022-10-13T09:17:42.845Z,99.90
2022-10-13T09:23:00.011Z,99.90
2022-10-13T09:28:09.524Z,99.90
2022-10-13T09:33:12.440Z,99.90
2022-10-13T09:38:21.446Z,99.90
2022-10-13T09:43:31.843Z,99.90
2022-10-13T09:48:36.705Z,99.90
2022-10-13T09:53:40.940Z,99.40
2022-10-13T09:59:14.632Z,98.70
2022-10-13T10:04:23.106Z,97.70
2022-10-13T10:09:41.552Z,97.90
2022-10-13T10:14:44.464Z,97.10
2022-10-13T10:19:59.261Z,96.40
2022-10-13T10:25:40.011Z,96.30
2022-10-13T10:30:50.111Z,96.00
2022-10-13T10:35:54.739Z,95.80
2022-10-13T10:40:57.527Z,95.10
2022-10-13T10:46:00.892Z,93.20
2022-10-13T10:51:06.605Z,93.00
2022-10-13T10:56:09.680Z,93.10
2022-10-13T11:01:12.548Z,91.50
2022-10-13T11:06:18.518Z,91.50
2022-10-13T11:11:32.298Z,90.50
2022-10-13T11:16:40.988Z,80.20
2022-10-13T11:21:52.976Z,82.80
2022-10-13T11:26:56.002Z,74.50
2022-10-13T11:31:58.897Z,78.20
2022-10-13T11:37:03.105Z,72.10
2022-10-13T11:42:12.315Z,74.40
2022-10-13T11:47:55.918Z,68.50
2022-10-13T11:53:11.594Z,68.50
2022-10-13T11:58:17.518Z,67.50
2022-10-13T12:03:31.916Z,66.80
2022-10-13T12:08:36.125Z,64.70
2022-10-13T12:13:39.272Z,66.50
2022-10-13T12:18:41.949Z,67.00
2022-10-13T12:23:45.086Z,68.20
2022-10-13T12:29:05.264Z,69.10
2022-10-13T12:34:25.636Z,69.60
2022-10-13T12:39:30.946Z,70.40
2022-10-13T12:44:34.087Z,71.50
2022-10-13T12:49:37.222Z,72.00
2022-10-13T12:54:47.310Z,72.30
2022-10-13T12:59:50.139Z,72.60
2022-10-13T13:04:53.154Z,73.50
2022-10-13T13:10:20.018Z,73.60
2022-10-13T13:15:26.096Z,74.00
2022-10-13T13:20:34.780Z,74.60
2022-10-13T13:25:37.653Z,74.80
2022-10-13T13:30:41.098Z,74.60
2022-10-13T13:35:43.875Z,74.90
2022-10-13T13:40:46.655Z,74.60
2022-10-13T13:45:49.544Z,75.10
2022-10-13T13:50:52.334Z,75.00
2022-10-13T13:55:55.240Z,75.70
2022-10-13T14:00:59.753Z,75.40
2022-10-13T14:06:02.417Z,75.00
2022-10-13T14:11:08.509Z,75.30
2022-10-13T14:16:16.056Z,75.10
2022-10-13T14:21:18.903Z,75.40
2022-10-13T14:26:21.739Z,75.20
2022-10-13T14:31:24.866Z,75.60
2022-10-13T14:36:28.297Z,75.80
2022-10-13T14:41:31.149Z,75.70
2022-10-13T14:46:33.970Z,76.10
2022-10-13T14:51:36.735Z,76.30
2022-10-13T14:56:39.526Z,77.30
2022-10-13T15:01:42.749Z,77.60
2022-10-13T15:06:45.530Z,78.30
2022-10-13T15:11:48.348Z,78.90
2022-10-13T15:16:51.535Z,80.00
2022-10-13T15:21:54.429Z,80.70
2022-10-13T15:26:57.263Z,82.50
2022-10-13T15:32:11.362Z,83.20
2022-10-13T15:37:14.252Z,84.00
2022-10-13T15:42:17.138Z,83.40
2022-10-13T15:47:19.969Z,84.10
2022-10-13T15:52:22.989Z,84.10
2022-10-13T15:57:26.062Z,84.40
2022-10-13T16:02:28.888Z,84.70
2022-10-13T16:07:32.519Z,85.60
2022-10-13T16:12:35.669Z,87.10
2022-10-13T16:17:38.544Z,88.50
2022-10-13T16:22:41.272Z,89.30
2022-10-13T16:27:44.712Z,90.80
2022-10-13T16:32:47.686Z,90.80
2022-10-13T16:37:50.860Z,90.10
2022-10-13T16:42:53.896Z,90.90
2022-10-13T16:47:57.378Z,91.30
2022-10-13T16:53:00.148Z,91.50
2022-10-13T16:58:03.013Z,91.60
2022-10-13T17:03:06.777Z,92.20
2022-10-13T17:08:09.608Z,92.70
2022-10-13T17:13:12.524Z,93.00
2022-10-13T17:18:15.335Z,93.20
2022-10-13T17:23:18.303Z,93.20
2022-10-13T17:28:21.834Z,93.70
2022-10-13T17:33:25.081Z,94.00
2022-10-13T17:38:28.798Z,94.00
2022-10-13T17:43:32.970Z,94.70
2022-10-13T17:48:35.772Z,94.80
2022-10-13T17:53:39.914Z,95.20
2022-10-13T17:58:43.252Z,95.50
2022-10-13T18:03:47.802Z,95.70
2022-10-13T18:08:51.598Z,96.90
2022-10-13T18:13:54.601Z,98.20
2022-10-13T18:18:57.499Z,99.70
2022-10-13T18:24:02.109Z,99.90
2022-10-13T18:29:06.442Z,99.90
2022-10-13T18:34:14.130Z,99.90
2022-10-13T18:39:19.663Z,99.90
2022-10-13T18:44:24.218Z,99.90
2022-10-13T18:49:33.573Z,99.90
2022-10-13T18:54:36.364Z,99.90
2022-10-13T18:59:39.023Z,99.90
2022-10-13T19:04:41.857Z,99.90
2022-10-13T19:09:45.079Z,99.90
2022-10-13T19:14:47.835Z,99.90
2022-10-13T19:19:50.874Z,99.90
2022-10-13T19:24:53.798Z,99.90
2022-10-13T19:29:56.591Z,99.90
2022-10-13T19:34:59.449Z,99.90
2022-10-13T19:40:02.528Z,99.90
2022-10-13T19:45:06.053Z,99.90
2022-10-13T19:50:08.915Z,99.90
2022-10-13T19:55:11.769Z,99.90
2022-10-13T20:00:15.381Z,99.90
2022-10-13T20:05:20.928Z,99.90
2022-10-13T20:10:27.523Z,99.90
2022-10-13T20:15:30.272Z,99.90
2022-10-13T20:20:35.173Z,99.90
2022-10-13T20:25:38.289Z,99.90
2022-10-13T20:30:41.062Z,99.90
2022-10-13T20:35:44.146Z,99.90
2022-10-13T20:40:47.971Z,99.90
2022-10-13T20:45:59.770Z,99.90
2022-10-13T20:51:04.431Z,99.90
2022-10-13T20:56:08.868Z,99.90
2022-10-13T21:01:12.398Z,99.90
2022-10-13T21:06:15.307Z,99.90
2022-10-13T21:11:20.201Z,99.90
2022-10-13T21:16:27.322Z,99.90
2022-10-13T21:21:33.367Z,99.90
2022-10-13T21:26:37.151Z,99.90
2022-10-13T21:31:39.956Z,99.90
2022-10-13T21:36:44.576Z,99.90
2022-10-13T21:41:47.452Z,99.90
2022-10-13T21:46:50.305Z,99.90
2022-10-13T21:51:53.086Z,99.90
2022-10-13T21:56:55.974Z,99.90
2022-10-13T22:01:58.772Z,99.90
2022-10-13T22:07:01.736Z,99.90
2022-10-13T22:12:05.399Z,99.90
2022-10-13T22:17:08.555Z,99.90
2022-10-13T22:22:11.389Z,99.90
2022-10-13T22:27:14.244Z,99.90
2022-10-13T22:32:17.090Z,99.90
2022-10-13T22:37:20.279Z,99.90
2022-10-13T22:42:23.755Z,99.90
2022-10-13T22:47:26.667Z,99.90
2022-10-13T22:52:29.240Z,99.90
2022-10-13T22:57:32.098Z,99.90
2022-10-13T23:02:34.926Z,99.90
2022-10-13T23:07:37.689Z,99.90
2022-10-13T23:12:40.475Z,99.90
2022-10-13T23:17:43.326Z,99.90
2022-10-13T23:22:46.069Z,99.90
2022-10-13T23:27:48.869Z,99.90
2022-10-13T23:32:51.714Z,99.90
2022-10-13T23:37:54.625Z,99.90
2022-10-13T23:42:57.248Z,99.90
2022-10-13T23:48:00.002Z,99.90
2022-10-13T23:53:03.397Z,99.90
2022-10-13T23:58:06.683Z,99.90
